Time;durP1;ratioP1;P1;durP2;ratioP2;P2;SDS_P1;SDS_P2;PMS_P1;PMS_P2;Temp;Humidity;BMP_temperature;BMP_pressure;BME280_temperature;BME280_humidity;BME280_pressure;Samples;Min_cycle;Max_cycle;Signal;HPM_P1;HPM_P2
2022/10/23 00:01:20;;;;;;;35.72;9.57;;;10.30;99.90;;;;;;4960657;28;20060;-65
2022/10/23 00:03:49;;;;;;;19.50;10.50;;;10.20;99.90;;;;;;4963189;28;21136;-66
2022/10/23 00:06:14;;;;;;;52.88;11.07;;;10.20;99.90;;;;;;4954725;28;20054;-66
2022/10/23 00:08:41;;;;;;;18.98;10.05;;;10.10;99.90;;;;;;4958405;28;20051;-65
2022/10/23 00:11:12;;;;;;;45.88;10.57;;;10.10;99.90;;;;;;4971355;28;20121;-65
2022/10/23 00:13:38;;;;;;;27.40;9.95;;;10.10;99.90;;;;;;4954560;28;20038;-65
2022/10/23 00:16:04;;;;;;;15.30;11.32;;;10.10;99.90;;;;;;4952950;28;20050;-67
2022/10/23 00:18:30;;;;;;;17.08;11.60;;;10.20;99.90;;;;;;4969137;28;20038;-67
2022/10/23 00:20:56;;;;;;;14.45;11.20;;;10.20;99.90;;;;;;4967332;28;20051;-65
2022/10/23 00:23:21;;;;;;;16.67;10.43;;;10.30;99.90;;;;;;4956076;28;20040;-65
2022/10/23 00:25:47;;;;;;;15.40;11.57;;;10.40;99.90;;;;;;4958091;28;20399;-65
2022/10/23 00:28:13;;;;;;;16.70;10.10;;;10.40;99.90;;;;;;4950055;28;20093;-66
2022/10/23 00:30:39;;;;;;;13.82;10.23;;;10.40;99.90;;;;;;4962951;28;20046;-65
2022/10/23 00:33:04;;;;;;;13.48;10.20;;;10.40;99.90;;;;;;4959686;28;20086;-65
2022/10/23 00:35:30;;;;;;;18.98;11.52;;;10.40;99.90;;;;;;4969170;28;20051;-65
2022/10/23 00:37:55;;;;;;;44.55;9.35;;;10.40;99.90;;;;;;4962975;28;20070;-66
2022/10/23 00:40:21;;;;;;;23.40;9.98;;;10.30;99.90;;;;;;4972118;28;20038;-65
2022/10/23 00:42:47;;;;;;;74.53;10.50;;;10.30;99.90;;;;;;4964285;28;20125;-67
2022/10/23 00:45:34;;;;;;;57.88;9.68;;;10.20;99.90;;;;;;4954964;28;20043;-66
2022/10/23 00:48:00;;;;;;;141.10;11.82;;;10.10;99.90;;;;;;4964777;28;20405;-66
2022/10/23 00:50:28;;;;;;;210.70;11.77;;;10.00;99.90;;;;;;4963264;28;20074;-66
2022/10/23 00:52:55;;;;;;;135.20;10.18;;;10.00;99.90;;;;;;4972503;28;20129;-65
2022/10/23 00:55:24;;;;;;;31.60;7.60;;;9.90;99.90;;;;;;4963318;28;20043;-66
2022/10/23 00:57:50;;;;;;;15.32;10.32;;;9.80;99.90;;;;;;4956342;28;20039;-66
2022/10/23 01:00:22;;;;;;;15.43;9.82;;;9.80;99.90;;;;;;4963029;28;20162;-66
2022/10/23 01:02:49;;;;;;;14.35;9.90;;;9.80;99.90;;;;;;4961321;28;20118;-65
2022/10/23 01:05:15;;;;;;;19.33;11.95;;;9.90;99.90;;;;;;4966599;28;20509;-65
2022/10/23 01:07:46;;;;;;;28.90;11.68;;;10.00;99.90;;;;;;4962960;28;20054;-65
2022/10/23 01:10:15;;;;;;;;;;;10.00;99.90;;;;;;4972444;28;20042;-67
2022/10/23 01:12:52;;;;;;;19.20;11.98;;;10.20;99.90;;;;;;4960226;28;19929;-65
2022/10/23 01:15:37;;;;;;;18.17;12.75;;;10.30;99.90;;;;;;4952664;28;20043;-66
2022/10/23 01:18:23;;;;;;;21.75;13.15;;;10.30;99.90;;;;;;4951960;28;20050;-65
2022/10/23 01:21:38;;;;;;;45.60;15.30;;;10.30;99.90;;;;;;4952787;28;20103;-66
2022/10/23 01:24:49;;;;;;;99.30;13.15;;;10.40;99.90;;;;;;4948507;28;20465;-66
2022/10/23 01:27:31;;;;;;;167.73;14.90;;;10.30;99.90;;;;;;4893973;29;20554;-65
2022/10/23 01:30:06;;;;;;;53.85;11.73;;;10.20;99.90;;;;;;4955496;28;20109;-66
2022/10/23 01:32:51;;;;;;;305.58;16.08;;;10.00;99.90;;;;;;4962628;28;20054;-66
2022/10/23 01:35:33;;;;;;;104.07;12.45;;;9.90;99.90;;;;;;4963281;28;20043;-67
2022/10/23 01:38:34;;;;;;;106.28;11.07;;;9.90;99.90;;;;;;4960565;28;20039;-65
2022/10/23 01:41:04;;;;;;;123.00;11.10;;;9.80;99.90;;;;;;4967649;28;20074;-64
2022/10/23 01:43:44;;;;;;;102.55;12.55;;;9.70;99.90;;;;;;4968754;28;20449;-65
2022/10/23 01:46:13;;;;;;;99.50;12.40;;;9.70;99.90;;;;;;4967063;28;20054;-65
2022/10/23 01:48:43;;;;;;;289.63;17.50;;;9.60;99.90;;;;;;4965431;28;20409;-66
2022/10/23 01:51:12;;;;;;;151.70;14.07;;;9.60;99.90;;;;;;4967397;28;20409;-66
2022/10/23 01:53:41;;;;;;;117.85;15.40;;;9.60;99.90;;;;;;4958928;28;20165;-67
2022/10/23 01:56:11;;;;;;;166.32;16.35;;;9.60;99.90;;;;;;4968051;28;20557;-65
2022/10/23 01:58:41;;;;;;;388.15;23.30;;;9.60;99.90;;;;;;4973873;28;20130;-66
2022/10/23 02:01:09;;;;;;;327.55;17.10;;;9.60;99.90;;;;;;4970262;28;20035;-65
2022/10/23 02:03:38;;;;;;;269.95;15.90;;;9.50;99.90;;;;;;4964421;28;20481;-66
2022/10/23 02:06:03;;;;;;;161.52;13.13;;;9.40;99.90;;;;;;4967229;28;20039;-66
2022/10/23 02:08:30;;;;;;;108.25;13.52;;;9.40;99.90;;;;;;4974040;28;20185;-65
2022/10/23 02:11:08;;;;;;;148.13;17.75;;;9.30;99.90;;;;;;4955840;28;20478;-66
2022/10/23 02:13:47;;;;;;;28.92;15.32;;;9.50;99.90;;;;;;4958973;28;20039;-65
2022/10/23 02:16:33;;;;;;;101.68;15.15;;;9.60;99.90;;;;;;4970579;28;20118;-67
2022/10/23 02:18:59;;;;;;;28.95;14.73;;;9.60;99.90;;;;;;4957526;28;20061;-66
2022/10/23 02:21:58;;;;;;;25.98;16.48;;;9.70;99.90;;;;;;4973896;28;20039;-65
2022/10/23 02:24:43;;;;;;;22.75;15.52;;;9.70;99.90;;;;;;4969173;28;20043;-66
2022/10/23 02:27:21;;;;;;;47.25;16.38;;;9.80;99.90;;;;;;4961580;28;20043;-65
2022/10/23 02:30:00;;;;;;;24.52;15.82;;;9.80;99.90;;;;;;4965924;28;20114;-67
2022/10/23 02:32:27;;;;;;;60.88;16.00;;;9.80;99.90;;;;;;4972413;28;20125;-65
2022/10/23 02:34:53;;;;;;;27.73;17.33;;;9.90;99.90;;;;;;4962473;28;20043;-65
2022/10/23 02:37:19;;;;;;;26.05;17.10;;;10.00;99.90;;;;;;4972798;28;20035;-66
2022/10/23 02:39:44;;;;;;;102.28;16.33;;;10.00;99.90;;;;;;4964921;28;20038;-66
2022/10/23 02:42:22;;;;;;;105.38;15.02;;;9.90;99.90;;;;;;4962673;28;20434;-66
2022/10/23 02:45:07;;;;;;;287.25;17.90;;;9.80;99.90;;;;;;4970468;28;20035;-65
2022/10/23 02:47:51;;;;;;;178.15;15.85;;;9.70;99.90;;;;;;4966157;28;20042;-66
2022/10/23 02:50:50;;;;;;;84.10;14.55;;;9.60;99.90;;;;;;4971957;28;20043;-66
2022/10/23 02:53:30;;;;;;;77.72;14.48;;;9.50;99.90;;;;;;4962569;28;20456;-66
2022/10/23 02:56:09;;;;;;;62.50;15.45;;;9.50;99.90;;;;;;4963328;28;20051;-66
2022/10/23 02:58:58;;;;;;;75.43;15.90;;;9.50;99.90;;;;;;4964704;28;20089;-67
2022/10/23 03:01:34;;;;;;;33.67;15.00;;;9.50;99.90;;;;;;4957292;28;20043;-65
2022/10/23 03:04:04;;;;;;;81.70;16.23;;;9.50;99.90;;;;;;4966790;28;20482;-65
2022/10/23 03:06:31;;;;;;;236.93;19.80;;;9.50;99.90;;;;;;4968670;28;20076;-65
2022/10/23 03:09:06;;;;;;;327.98;21.83;;;9.50;99.90;;;;;;4962654;28;20545;-65
2022/10/23 03:11:31;;;;;;;536.40;25.63;;;9.50;99.90;;;;;;4961162;28;20078;-66
2022/10/23 03:13:57;;;;;;;97.50;13.95;;;9.30;99.90;;;;;;4965601;28;20074;-65
2022/10/23 03:16:23;;;;;;;140.55;17.35;;;9.30;99.90;;;;;;4954693;28;20035;-65
2022/10/23 03:18:48;;;;;;;65.85;16.10;;;9.30;99.90;;;;;;4960859;28;20038;-66
2022/10/23 03:21:14;;;;;;;97.68;17.65;;;9.30;99.90;;;;;;4957142;28;20050;-65
2022/10/23 03:23:39;;;;;;;83.15;16.00;;;9.30;99.90;;;;;;4956292;28;20030;-65
2022/10/23 03:26:05;;;;;;;143.73;18.00;;;9.30;99.90;;;;;;4966522;28;20478;-67
2022/10/23 03:28:31;;;;;;;52.03;17.38;;;9.30;99.90;;;;;;4962677;28;20134;-66
2022/10/23 03:30:57;;;;;;;53.40;16.95;;;9.30;99.90;;;;;;4960640;28;20039;-66
2022/10/23 03:33:22;;;;;;;94.05;16.67;;;9.30;99.90;;;;;;4957400;28;20038;-65
2022/10/23 03:35:48;;;;;;;79.60;17.05;;;9.30;99.90;;;;;;4955803;28;20071;-65
2022/10/23 03:38:14;;;;;;;113.93;18.63;;;9.40;99.90;;;;;;4953975;28;20097;-66
2022/10/23 03:40:40;;;;;;;147.90;19.80;;;9.40;99.90;;;;;;4951809;28;20122;-65
2022/10/23 03:43:05;;;;;;;161.93;19.38;;;9.40;99.90;;;;;;4961030;28;20481;-66
2022/10/23 03:45:31;;;;;;;40.92;17.67;;;9.50;99.90;;;;;;4963914;28;20053;-65
2022/10/23 03:47:57;;;;;;;35.05;20.52;;;9.60;99.90;;;;;;4964452;28;20547;-67
2022/10/23 03:50:23;;;;;;;33.30;19.75;;;9.70;99.90;;;;;;4960627;28;20083;-66
2022/10/23 03:52:49;;;;;;;31.65;18.40;;;9.70;99.90;;;;;;4956195;28;20061;-65
2022/10/23 03:55:15;;;;;;;36.05;19.63;;;9.80;99.90;;;;;;4963597;28;20401;-65
2022/10/23 03:57:40;;;;;;;32.30;19.95;;;9.80;99.90;;;;;;4966730;28;20405;-66
2022/10/23 04:00:07;;;;;;;33.15;19.50;;;9.90;99.90;;;;;;4953554;28;20402;-65
2022/10/23 04:02:33;;;;;;;35.30;19.42;;;9.90;99.90;;;;;;4950894;28;20043;-65
2022/10/23 04:04:58;;;;;;;32.35;19.52;;;9.90;99.90;;;;;;4963131;28;20039;-66
2022/10/23 04:07:24;;;;;;;33.53;20.05;;;9.90;99.90;;;;;;4959749;28;20153;-67
2022/10/23 04:09:50;;;;;;;42.35;20.02;;;10.00;99.90;;;;;;4952396;28;20101;-66
2022/10/23 04:12:16;;;;;;;40.58;20.48;;;10.10;99.90;;;;;;4961302;28;20398;-67
2022/10/23 04:14:41;;;;;;;38.10;20.00;;;10.10;99.90;;;;;;4967110;28;20402;-65
2022/10/23 04:17:07;;;;;;;40.67;20.55;;;10.10;99.90;;;;;;4964069;28;20035;-65
2022/10/23 04:19:32;;;;;;;44.42;21.52;;;10.10;99.90;;;;;;4952103;28;20554;-66
2022/10/23 04:21:58;;;;;;;35.33;19.77;;;10.20;99.90;;;;;;4951393;28;20050;-66
2022/10/23 04:24:24;;;;;;;34.42;20.23;;;10.20;99.90;;;;;;4961264;28;20402;-65
2022/10/23 04:26:49;;;;;;;32.17;20.20;;;10.10;99.90;;;;;;4964632;28;20034;-66
2022/10/23 04:29:16;;;;;;;33.90;20.70;;;10.00;99.90;;;;;;4973107;28;20108;-66
2022/10/23 04:31:41;;;;;;;36.08;20.48;;;10.00;99.90;;;;;;4958826;28;20405;-65
2022/10/23 04:34:07;;;;;;;54.20;20.40;;;10.00;99.90;;;;;;4960789;28;20043;-66
2022/10/23 04:36:33;;;;;;;36.70;19.80;;;9.90;99.90;;;;;;4968122;28;20117;-67
2022/10/23 04:38:58;;;;;;;32.78;18.50;;;9.80;99.90;;;;;;4958082;28;20129;-65
2022/10/23 04:41:24;;;;;;;38.05;19.95;;;9.80;99.90;;;;;;4954990;28;20043;-66
2022/10/23 04:43:49;;;;;;;38.13;20.48;;;9.80;99.90;;;;;;4960011;28;20041;-66
2022/10/23 04:46:16;;;;;;;40.85;20.88;;;9.90;99.90;;;;;;4968257;28;20038;-66
2022/10/23 04:48:42;;;;;;;48.88;21.42;;;9.90;99.90;;;;;;4959751;28;20054;-67
2022/10/23 04:51:08;;;;;;;42.97;21.08;;;9.90;99.90;;;;;;4967534;28;20038;-67
2022/10/23 04:53:34;;;;;;;39.85;21.00;;;10.00;99.90;;;;;;4962830;28;20046;-65
2022/10/23 04:56:00;;;;;;;34.25;19.98;;;9.90;99.90;;;;;;4957336;28;20034;-65
2022/10/23 04:58:27;;;;;;;40.85;20.65;;;9.90;99.90;;;;;;4955652;28;20035;-65
2022/10/23 05:00:53;;;;;;;48.60;20.75;;;9.90;99.90;;;;;;4964353;28;20159;-67
2022/10/23 05:03:20;;;;;;;36.53;21.10;;;9.90;99.90;;;;;;4963986;28;20076;-65
2022/10/23 05:05:46;;;;;;;39.22;20.95;;;10.00;99.90;;;;;;4957026;28;20094;-67
2022/10/23 05:08:12;;;;;;;39.55;20.67;;;10.00;99.90;;;;;;4961424;28;20050;-66
2022/10/23 05:10:38;;;;;;;39.88;21.02;;;10.00;99.90;;;;;;4958935;28;20066;-67
2022/10/23 05:13:04;;;;;;;38.60;20.90;;;10.00;99.90;;;;;;4950130;28;20053;-66
2022/10/23 05:15:30;;;;;;;47.10;21.90;;;10.10;99.90;;;;;;4965244;28;20047;-65
2022/10/23 05:18:01;;;;;;;38.17;20.27;;;10.10;99.90;;;;;;4962714;28;20062;-67
2022/10/23 05:20:32;;;;;;;42.65;21.45;;;10.10;99.90;;;;;;4966875;28;20433;-67
2022/10/23 05:22:59;;;;;;;41.75;21.25;;;10.10;99.90;;;;;;4955525;28;20410;-67
2022/10/23 05:25:25;;;;;;;40.08;20.88;;;10.10;99.90;;;;;;4963776;28;20049;-66
2022/10/23 05:27:51;;;;;;;37.88;21.10;;;10.10;99.90;;;;;;4954107;28;20036;-66
2022/10/23 05:30:17;;;;;;;41.13;20.95;;;10.10;99.90;;;;;;4961913;28;20161;-67
2022/10/23 05:32:43;;;;;;;44.05;20.92;;;10.10;99.90;;;;;;4964902;28;20252;-66
2022/10/23 05:35:12;;;;;;;44.92;21.00;;;10.00;99.90;;;;;;4958187;28;20050;-67
2022/10/23 05:37:40;;;;;;;43.45;21.88;;;10.00;99.90;;;;;;4951701;28;20050;-66
2022/10/23 05:40:06;;;;;;;41.40;20.65;;;10.00;99.90;;;;;;4961374;28;20085;-67
2022/10/23 05:42:32;;;;;;;38.63;21.80;;;10.00;99.90;;;;;;4958568;28;20126;-66
2022/10/23 05:44:58;;;;;;;43.72;21.60;;;10.10;99.90;;;;;;4969806;28;20054;-67
2022/10/23 05:47:23;;;;;;;42.03;21.55;;;10.10;99.90;;;;;;4960089;28;20750;-67
2022/10/23 05:49:49;;;;;;;43.97;22.13;;;10.10;99.90;;;;;;4956877;28;20081;-66
2022/10/23 05:52:15;;;;;;;47.65;21.77;;;10.10;99.90;;;;;;4950558;28;20043;-66
2022/10/23 05:54:40;;;;;;;46.13;20.73;;;10.10;99.90;;;;;;4946718;28;20150;-66
2022/10/23 05:57:06;;;;;;;47.45;22.63;;;10.10;99.90;;;;;;4964675;28;20046;-68
2022/10/23 05:59:31;;;;;;;41.63;21.05;;;10.10;99.90;;;;;;4956210;28;20090;-66
2022/10/23 06:01:57;;;;;;;40.97;21.65;;;10.10;99.90;;;;;;4962747;28;20047;-69
2022/10/23 06:04:22;;;;;;;43.10;22.30;;;10.10;99.90;;;;;;4956771;28;20043;-66
2022/10/23 06:06:48;;;;;;;47.55;21.13;;;10.20;99.90;;;;;;4962183;28;20497;-67
2022/10/23 06:09:14;;;;;;;40.97;22.17;;;10.20;99.90;;;;;;4964715;28;20101;-68
2022/10/23 06:11:41;;;;;;;40.67;21.73;;;10.20;99.90;;;;;;4963823;28;22543;-67
2022/10/23 06:14:06;;;;;;;41.13;20.17;;;10.20;99.90;;;;;;4957584;28;20122;-67
2022/10/23 06:16:32;;;;;;;45.17;21.50;;;10.20;99.90;;;;;;4962478;28;20447;-66
2022/10/23 06:18:59;;;;;;;41.15;21.75;;;10.20;99.90;;;;;;4962835;28;20038;-67
2022/10/23 06:21:24;;;;;;;46.00;21.23;;;10.30;99.90;;;;;;4960141;28;20085;-67
2022/10/23 06:23:50;;;;;;;42.75;21.20;;;10.30;99.90;;;;;;4960656;28;20070;-66
2022/10/23 06:26:17;;;;;;;41.47;20.55;;;10.30;99.90;;;;;;4962124;28;20125;-68
2022/10/23 06:28:43;;;;;;;45.88;20.90;;;10.40;99.90;;;;;;4961713;28;20529;-67
2022/10/23 06:31:12;;;;;;;43.67;20.45;;;10.40;99.90;;;;;;4954252;28;20125;-67
2022/10/23 06:33:37;;;;;;;45.38;22.00;;;10.40;99.90;;;;;;4966211;28;20117;-66
2022/10/23 06:36:04;;;;;;;42.97;20.77;;;10.50;99.90;;;;;;4962036;28;20569;-67
2022/10/23 06:38:35;;;;;;;45.80;21.65;;;10.50;99.90;;;;;;4966971;28;20041;-67
2022/10/23 06:41:01;;;;;;;41.63;21.23;;;10.50;99.90;;;;;;4968326;28;20081;-67
2022/10/23 06:43:27;;;;;;;41.75;20.73;;;10.60;99.90;;;;;;4970593;28;20067;-68
2022/10/23 06:45:52;;;;;;;39.45;20.58;;;10.60;99.90;;;;;;4960197;28;20100;-68
2022/10/23 06:48:18;;;;;;;46.17;19.75;;;10.60;99.90;;;;;;4962748;28;20042;-66
2022/10/23 06:50:43;;;;;;;47.80;19.90;;;10.60;99.90;;;;;;4973372;28;20405;-67
2022/10/23 06:53:11;;;;;;;39.50;19.35;;;10.70;99.90;;;;;;4958017;28;20047;-66
2022/10/23 06:55:40;;;;;;;41.78;20.38;;;10.70;99.90;;;;;;4967846;28;20089;-67
2022/10/23 06:58:09;;;;;;;40.40;20.20;;;10.70;99.90;;;;;;4966766;28;20047;-66
2022/10/23 07:00:36;;;;;;;39.17;19.60;;;10.70;99.90;;;;;;4967723;28;20039;-66
2022/10/23 07:03:02;;;;;;;49.50;20.38;;;10.80;99.90;;;;;;4968190;28;20401;-67
2022/10/23 07:05:28;;;;;;;41.42;20.13;;;10.80;99.90;;;;;;4964711;28;20513;-66
2022/10/23 07:07:53;;;;;;;44.53;20.58;;;10.90;99.90;;;;;;4969671;28;20134;-65
2022/10/23 07:10:19;;;;;;;43.00;20.20;;;10.80;99.90;;;;;;4963894;28;20081;-66
2022/10/23 07:12:46;;;;;;;37.70;19.27;;;10.90;99.90;;;;;;4970350;28;20122;-65
2022/10/23 07:15:12;;;;;;;36.38;19.17;;;11.00;99.90;;;;;;4967444;28;20740;-65
2022/10/23 07:17:37;;;;;;;38.42;18.67;;;11.00;99.90;;;;;;4973796;28;20113;-65
2022/10/23 07:20:03;;;;;;;36.38;18.38;;;11.00;99.90;;;;;;4964418;28;20405;-65
2022/10/23 07:22:29;;;;;;;37.08;17.73;;;11.00;99.90;;;;;;4962743;28;20043;-65
2022/10/23 07:24:54;;;;;;;35.53;18.05;;;11.00;99.90;;;;;;4973689;28;20049;-67
2022/10/23 07:27:20;;;;;;;35.85;17.88;;;11.00;99.90;;;;;;4961065;28;20154;-65
2022/10/23 07:29:49;;;;;;;35.00;18.33;;;11.10;99.90;;;;;;4962046;28;20042;-66
2022/10/23 07:32:15;;;;;;;39.08;18.95;;;11.10;99.90;;;;;;4969062;28;20489;-67
2022/10/23 07:34:40;;;;;;;33.90;18.33;;;11.10;99.90;;;;;;4973566;28;20046;-67
2022/10/23 07:37:06;;;;;;;35.13;18.48;;;11.20;99.90;;;;;;4966648;28;20498;-66
2022/10/23 07:39:31;;;;;;;36.35;18.35;;;11.20;99.90;;;;;;4963498;28;20035;-67
2022/10/23 07:41:57;;;;;;;35.42;18.08;;;11.30;99.90;;;;;;4972995;28;20077;-68
2022/10/23 07:44:23;;;;;;;33.40;17.63;;;11.30;99.90;;;;;;4961307;28;20126;-67
2022/10/23 07:46:49;;;;;;;39.33;17.33;;;11.40;99.90;;;;;;4957654;28;20042;-67
2022/10/23 07:49:14;;;;;;;39.17;18.25;;;11.50;99.90;;;;;;4953593;28;20039;-68
2022/10/23 07:51:40;;;;;;;32.88;18.05;;;11.50;99.90;;;;;;4953942;28;20490;-67
2022/10/23 07:54:09;;;;;;;37.47;17.38;;;11.60;99.90;;;;;;4953652;28;20043;-67
2022/10/23 07:56:35;;;;;;;32.72;16.95;;;11.60;99.90;;;;;;4964273;28;20105;-67
2022/10/23 07:59:01;;;;;;;32.55;17.15;;;11.70;99.90;;;;;;4968176;28;20038;-67
2022/10/23 08:01:29;;;;;;;34.63;16.65;;;11.80;99.90;;;;;;4962909;28;20090;-67
2022/10/23 08:03:54;;;;;;;26.70;16.05;;;11.80;99.90;;;;;;4960443;28;20078;-68
2022/10/23 08:06:20;;;;;;;35.40;15.93;;;11.90;99.90;;;;;;4952054;28;20066;-67
2022/10/23 08:08:45;;;;;;;33.20;15.13;;;12.00;99.90;;;;;;4970212;28;20089;-67
2022/10/23 08:11:16;;;;;;;29.52;15.52;;;12.00;99.90;;;;;;4964506;28;20541;-67
2022/10/23 08:13:42;;;;;;;26.03;14.43;;;12.10;99.90;;;;;;4971947;28;20039;-67
2022/10/23 08:16:08;;;;;;;31.38;14.90;;;12.10;99.90;;;;;;4966000;28;20304;-67
2022/10/23 08:18:34;;;;;;;28.80;14.00;;;12.20;99.90;;;;;;4964142;28;20401;-67
2022/10/23 08:21:02;;;;;;;29.98;15.07;;;12.20;99.90;;;;;;4964556;28;20105;-68
2022/10/23 08:23:28;;;;;;;30.13;15.38;;;12.30;99.90;;;;;;4964988;28;20129;-68
2022/10/23 08:25:59;;;;;;;24.67;14.73;;;12.30;99.90;;;;;;4962113;28;20038;-68
2022/10/23 08:28:25;;;;;;;26.70;14.33;;;12.30;99.90;;;;;;4963121;28;20050;-68
2022/10/23 08:30:51;;;;;;;28.05;13.68;;;12.40;99.90;;;;;;4971628;28;20329;-67
2022/10/23 08:33:16;;;;;;;22.70;14.07;;;12.50;99.90;;;;;;4957144;28;20059;-67
2022/10/23 08:35:42;;;;;;;25.52;14.43;;;12.60;99.90;;;;;;4961854;28;20489;-67
2022/10/23 08:38:09;;;;;;;27.02;13.70;;;12.70;99.90;;;;;;4960725;28;20042;-67
2022/10/23 08:40:35;;;;;;;30.67;14.07;;;12.80;99.90;;;;;;4957778;28;20455;-67
2022/10/23 08:43:09;;;;;;;21.70;12.88;;;12.90;99.90;;;;;;4962757;28;20107;-67
2022/10/23 08:45:42;;;;;;;25.85;13.77;;;13.00;99.90;;;;;;4959289;28;20050;-67
2022/10/23 08:48:36;;;;;;;20.83;12.18;;;13.10;99.90;;;;;;4969452;28;20046;-67
2022/10/23 08:51:16;;;;;;;24.13;12.85;;;13.10;99.90;;;;;;4959974;28;20050;-67
2022/10/23 08:54:11;;;;;;;31.38;12.85;;;13.20;99.90;;;;;;4960937;28;20469;-67
2022/10/23 08:56:40;;;;;;;20.73;11.90;;;13.30;99.90;;;;;;4963149;28;20055;-67
2022/10/23 08:59:38;;;;;;;24.00;12.48;;;13.40;99.90;;;;;;4964132;28;20091;-67
2022/10/23 09:02:07;;;;;;;24.15;12.50;;;13.50;99.90;;;;;;4960070;28;20043;-67
2022/10/23 09:04:33;;;;;;;20.25;11.73;;;13.60;99.90;;;;;;4960152;28;20122;-67
2022/10/23 09:07:08;;;;;;;19.70;11.00;;;13.60;99.90;;;;;;4958963;28;20675;-65
2022/10/23 09:10:11;;;;;;;19.42;11.20;;;13.70;99.90;;;;;;4958635;28;20043;-65
2022/10/23 09:12:38;;;;;;;17.23;11.43;;;13.80;99.90;;;;;;4967155;28;20046;-65
2022/10/23 09:15:15;;;;;;;21.40;11.57;;;13.80;99.90;;;;;;4959576;28;20055;-66
2022/10/23 09:17:43;;;;;;;21.48;11.75;;;13.90;99.90;;;;;;4964514;28;20094;-66
2022/10/23 09:20:20;;;;;;;20.75;10.65;;;14.00;99.90;;;;;;4963736;28;20038;-65
2022/10/23 09:22:47;;;;;;;15.35;10.77;;;14.00;99.90;;;;;;4959737;28;20547;-69
2022/10/23 09:25:25;;;;;;;21.85;11.20;;;14.00;99.90;;;;;;4965263;28;20104;-67
2022/10/23 09:27:55;;;;;;;17.33;10.57;;;14.10;99.90;;;;;;4960313;28;20133;-67
2022/10/23 09:30:41;;;;;;;16.23;10.23;;;14.20;99.90;;;;;;4953703;28;20070;-66
2022/10/23 09:33:23;;;;;;;23.08;10.18;;;14.20;99.90;;;;;;4950229;28;20503;-67
2022/10/23 09:36:05;;;;;;;20.48;10.00;;;14.30;99.90;;;;;;4955770;28;20098;-66
2022/10/23 09:38:32;;;;;;;16.15;10.13;;;14.40;99.90;;;;;;4949765;28;20082;-65
2022/10/23 09:41:05;;;;;;;17.15;10.10;;;14.40;99.90;;;;;;4951718;28;20639;-68
2022/10/23 09:43:30;;;;;;;20.73;9.13;;;14.50;99.90;;;;;;4957853;28;20077;-66
2022/10/23 09:46:06;;;;;;;15.10;8.50;;;14.60;99.90;;;;;;4969414;28;20440;-67
2022/10/23 09:48:33;;;;;;;18.73;8.65;;;14.70;99.90;;;;;;4965801;28;20054;-64
2022/10/23 09:51:13;;;;;;;15.07;9.05;;;14.70;99.90;;;;;;4965783;28;20049;-64
2022/10/23 09:53:57;;;;;;;15.95;8.77;;;14.80;99.90;;;;;;4960905;28;20130;-66
2022/10/23 09:56:30;;;;;;;17.98;8.57;;;14.80;99.90;;;;;;4957231;28;20051;-68
2022/10/23 09:59:21;;;;;;;16.10;7.97;;;14.90;99.90;;;;;;4947257;28;20047;-68
2022/10/23 10:01:53;;;;;;;13.20;7.47;;;15.00;99.90;;;;;;4956837;28;20142;-66
2022/10/23 10:04:29;;;;;;;13.93;8.07;;;15.00;99.90;;;;;;4962396;28;20056;-66
2022/10/23 10:07:00;;;;;;;14.48;8.38;;;15.10;99.90;;;;;;4961146;28;20054;-69
2022/10/23 10:09:26;;;;;;;13.98;7.53;;;15.10;99.90;;;;;;4966912;28;20047;-67
2022/10/23 10:12:03;;;;;;;13.32;7.72;;;15.20;99.90;;;;;;4967264;28;20043;-66
2022/10/23 10:14:41;;;;;;;16.98;7.80;;;15.30;99.90;;;;;;4964856;28;20417;-68
2022/10/23 10:17:40;;;;;;;18.30;7.55;;;15.30;99.90;;;;;;4963858;28;20042;-70
2022/10/23 10:20:42;;;;;;;13.05;7.15;;;15.40;99.90;;;;;;4970437;28;20054;-67
2022/10/23 10:23:31;;;;;;;9.98;7.20;;;15.50;99.90;;;;;;4959947;28;20069;-66
2022/10/23 10:26:05;;;;;;;16.33;7.07;;;15.60;99.90;;;;;;4960416;28;20509;-68
2022/10/23 10:28:40;;;;;;;11.93;7.05;;;15.60;99.90;;;;;;4967448;28;20074;-68
2022/10/23 10:31:29;;;;;;;12.63;7.18;;;15.70;99.90;;;;;;4963809;28;20053;-68
2022/10/23 10:34:24;;;;;;;20.80;7.53;;;15.70;99.90;;;;;;4974856;28;20109;-68
2022/10/23 10:36:54;;;;;;;12.75;7.35;;;15.70;99.90;;;;;;4952238;28;20039;-68
2022/10/23 10:39:38;;;;;;;13.10;7.25;;;15.70;99.90;;;;;;4955279;28;20743;-67
2022/10/23 10:42:24;;;;;;;17.58;6.68;;;15.70;99.90;;;;;;4958236;28;20094;-68
2022/10/23 10:45:03;;;;;;;12.77;6.88;;;15.70;99.90;;;;;;4968630;28;20050;-69
2022/10/23 10:47:56;;;;;;;14.57;7.13;;;15.70;99.90;;;;;;4953386;28;20762;-68
2022/10/23 10:50:28;;;;;;;15.23;7.05;;;15.70;99.90;;;;;;4961909;28;20035;-68
2022/10/23 10:53:06;;;;;;;12.90;7.20;;;15.70;99.90;;;;;;4965175;28;20051;-68
2022/10/23 10:55:37;;;;;;;9.60;6.22;;;15.80;99.90;;;;;;4964923;28;20034;-68
2022/10/23 10:58:09;;;;;;;;;;;15.70;99.90;;;;;;4953370;28;20510;-67
2022/10/23 11:00:35;;;;;;;13.65;6.25;;;15.70;99.90;;;;;;4960119;28;19918;-68
2022/10/23 11:03:06;;;;;;;11.45;6.30;;;15.70;99.90;;;;;;4959761;28;20107;-68
2022/10/23 11:05:36;;;;;;;12.20;5.93;;;15.70;99.90;;;;;;4954549;28;20046;-68
2022/10/23 11:08:17;;;;;;;11.15;6.35;;;15.70;99.90;;;;;;4957511;28;20103;-67
2022/10/23 11:10:49;;;;;;;9.13;5.63;;;15.60;99.90;;;;;;4950720;28;20578;-68
2022/10/23 11:13:23;;;;;;;13.32;6.43;;;15.60;99.90;;;;;;4962105;28;20038;-67
2022/10/23 11:15:50;;;;;;;12.52;5.90;;;15.60;99.90;;;;;;4967160;28;20047;-68
2022/10/23 11:18:24;;;;;;;10.55;5.85;;;15.60;99.90;;;;;;4962257;28;20041;-68
2022/10/23 11:21:27;;;;;;;10.00;5.80;;;15.60;99.90;;;;;;4953906;28;20039;-68
2022/10/23 11:24:26;;;;;;;13.77;6.15;;;15.60;99.90;;;;;;4959091;28;20047;-68
2022/10/23 11:27:22;;;;;;;13.15;5.70;;;15.60;99.90;;;;;;4991625;23;20050;-66
2022/10/23 11:30:09;;;;;;;10.57;5.72;;;15.60;99.90;;;;;;4957173;28;20489;-66
2022/10/23 11:33:11;;;;;;;14.55;6.50;;;15.60;99.90;;;;;;4953268;28;20039;-66
2022/10/23 11:35:55;;;;;;;8.80;5.78;;;15.70;99.90;;;;;;4956588;28;20046;-66
2022/10/23 11:38:28;;;;;;;11.68;6.25;;;15.80;99.90;;;;;;4975083;28;20042;-67
2022/10/23 11:41:17;;;;;;;8.50;5.70;;;15.80;99.90;;;;;;4968228;28;20031;-67
2022/10/23 11:44:02;;;;;;;12.60;5.80;;;15.80;99.90;;;;;;4969622;28;20070;-68
2022/10/23 11:46:29;;;;;;;8.85;5.80;;;15.80;99.90;;;;;;4966572;28;20042;-68
2022/10/23 11:48:55;;;;;;;10.55;5.47;;;15.90;99.90;;;;;;4959856;28;20539;-65
2022/10/23 11:51:34;;;;;;;19.08;6.03;;;15.90;99.90;;;;;;4969450;28;20062;-67
2022/10/23 11:54:21;;;;;;;12.40;5.82;;;15.90;99.90;;;;;;4953346;28;20101;-67
2022/10/23 11:56:55;;;;;;;10.50;6.20;;;16.00;99.90;;;;;;4959414;28;20035;-69
2022/10/23 11:59:29;;;;;;;14.50;5.70;;;16.00;99.90;;;;;;4957678;28;20043;-68
2022/10/23 12:01:58;;;;;;;10.50;5.70;;;16.10;99.90;;;;;;4953492;28;20138;-69
2022/10/23 12:04:27;;;;;;;11.38;5.55;;;16.10;99.90;;;;;;4965332;28;20098;-66
2022/10/23 12:06:59;;;;;;;20.02;6.63;;;16.20;99.90;;;;;;4972715;28;20042;-65
2022/10/23 12:09:43;;;;;;;10.25;5.70;;;16.10;99.90;;;;;;4968528;28;20062;-66
2022/10/23 12:12:09;;;;;;;8.35;5.07;;;16.10;99.90;;;;;;4966181;28;20035;-66
2022/10/23 12:14:40;;;;;;;11.82;6.60;;;16.20;99.90;;;;;;4960237;28;20038;-66
2022/10/23 12:17:21;;;;;;;9.77;5.45;;;16.20;99.90;;;;;;4953983;28;20043;-66
2022/10/23 12:19:55;;;;;;;15.63;5.65;;;16.30;99.90;;;;;;4953686;28;20039;-66
2022/10/23 12:22:26;;;;;;;11.02;5.35;;;16.30;99.90;;;;;;4959292;28;20093;-66
2022/10/23 12:25:09;;;;;;;8.35;5.20;;;16.30;99.90;;;;;;4964971;28;20042;-66
2022/10/23 12:27:51;;;;;;;14.25;5.30;;;16.30;99.90;;;;;;4953304;28;20051;-67
2022/10/23 12:30:31;;;;;;;13.32;5.85;;;16.40;99.90;;;;;;4964409;28;20109;-67
2022/10/23 12:33:09;;;;;;;8.82;5.20;;;16.40;99.90;;;;;;4961462;28;20054;-67
2022/10/23 12:35:55;;;;;;;15.10;5.95;;;16.50;99.90;;;;;;4957145;28;20589;-66
2022/10/23 12:38:26;;;;;;;12.88;5.75;;;16.40;99.90;;;;;;4961125;28;20042;-65
2022/10/23 12:41:14;;;;;;;11.27;5.30;;;16.40;99.90;;;;;;4954797;28;20050;-67
2022/10/23 12:43:42;;;;;;;9.77;5.10;;;16.40;99.90;;;;;;4956544;28;20038;-66
2022/10/23 12:46:23;;;;;;;9.35;5.43;;;16.40;99.90;;;;;;4959731;28;20098;-67
2022/10/23 12:48:51;;;;;;;10.75;5.35;;;16.30;99.90;;;;;;4963575;28;20374;-68
2022/10/23 12:51:29;;;;;;;12.70;5.20;;;16.20;99.90;;;;;;4965081;28;20040;-67
2022/10/23 12:53:55;;;;;;;9.48;5.40;;;16.20;99.90;;;;;;4964518;28;20066;-68
2022/10/23 12:56:22;;;;;;;12.65;5.15;;;16.10;99.90;;;;;;4961035;28;20047;-68